Time;durP1;ratioP1;P1;durP2;ratioP2;P2;SDS_P1;SDS_P2;PMS_P1;PMS_P2;Temp;Humidity;BMP_temperature;BMP_pressure;BME280_temperature;BME280_humidity;BME280_pressure;Samples;Min_cycle;Max_cycle;Signal;HPM_P1;HPM_P2
2022/07/22 00:00:48;;;;;;;;;;;;;;;;;;5178643;27;19915;-88
2022/07/22 00:03:14;;;;;;;;;;;;;;;;;;5178748;27;19921;-84
2022/07/22 00:05:39;;;;;;;;;;;;;;;;;;5178661;27;19967;-87
2022/07/22 00:08:04;;;;;;;;;;;;;;;;;;5178518;27;20277;-91
2022/07/22 00:10:30;;;;;;;;;;;;;;;;;;5178730;27;20346;-86
2022/07/22 00:12:55;;;;;;;;;;;;;;;;;;5159730;27;19963;-87
2022/07/22 00:15:21;;;;;;;;;;;;;;;;;;5178374;27;19911;-83
2022/07/22 00:17:46;;;;;;;;;;;;;;;;;;5178200;27;19915;-86
2022/07/22 00:20:12;;;;;;;;;;;;;;;;;;5178078;27;19911;-83
2022/07/22 00:22:37;;;;;;;;;;;;;;;;;;5159094;27;19936;-87
2022/07/22 00:25:04;;;;;;;;;;;;;;;;;;5177917;27;19965;-89
2022/07/22 00:27:29;;;;;;;;;;;;;;;;;;5178187;27;19922;-91
2022/07/22 00:29:55;;;;;;;;;;;;;;;;;;5177817;27;20281;-87
2022/07/22 00:32:20;;;;;;;;;;;;;;;;;;5177769;27;19958;-90
2022/07/22 00:34:46;;;;;;;;;;;;;;;;;;5177883;27;19949;-85
2022/07/22 00:37:11;;;;;;;;;;;;;;;;;;5177885;27;19915;-84
2022/07/22 00:39:37;;;;;;;;;;;;;;;;;;5178024;27;19956;-92
2022/07/22 00:42:03;;;;;;;;;;;;;;;;;;5177965;27;20019;-89
2022/07/22 00:44:28;;;;;;;;;;;;;;;;;;5177675;27;19921;-93
2022/07/22 00:46:54;;;;;;;;;;;;;;;;;;5177968;27;19958;-90
2022/07/22 00:49:19;;;;;;;;;;;;;;;;;;5177654;27;19968;-93
2022/07/22 00:51:45;;;;;;;;;;;;;;;;;;5177818;27;19922;-91
2022/07/22 00:54:11;;;;;;;;;;;;;;;;;;5177586;27;20362;-90
2022/07/22 00:56:37;;;;;;;;;;;;;;;;;;5159114;27;19935;-92
2022/07/22 00:59:04;;;;;;;;;;;;;;;;;;5177441;27;20378;-93
2022/07/22 01:01:29;;;;;;;;;;;;;;;;;;5177128;27;19918;-92
2022/07/22 01:03:55;;;;;;;;;;;;;;;;;;5177152;27;20271;-92
2022/07/22 01:06:21;;;;;;;;;;;;;;;;;;5177481;27;19915;-88
2022/07/22 01:08:47;;;;;;;;;;;;;;;;;;5177509;27;20379;-86
2022/07/22 01:11:16;;;;;;;;;;;;;;;;;;5177018;27;19915;-88
2022/07/22 01:13:42;;;;;;;;;;;;;;;;;;5177476;27;20382;-91
2022/07/22 01:16:08;;;;;;;;;;;;;;;;;;5177064;27;19933;-94
2022/07/22 01:18:34;;;;;;;;;;;;;;;;;;5177442;27;19914;-86
2022/07/22 01:21:00;;;;;;;;;;;;;;;;;;5177103;27;20377;-87
2022/07/22 01:23:26;;;;;;;;;;;;;;;;;;5176878;27;19971;-94
2022/07/22 01:25:51;;;;;;;;;;;;;;;;;;5176990;27;19915;-87
2022/07/22 01:28:16;;;;;;;;;;;;;;;;;;5176849;27;19921;-86
2022/07/22 01:30:42;;;;;;;;;;;;;;;;;;5157608;27;19953;-84
2022/07/22 01:33:07;;;;;;;;;;;;;;;;;;5154318;27;20389;-83
2022/07/22 01:35:33;;;;;;;;;;;;;;;;;;5155780;27;19958;-85
2022/07/22 01:37:58;;;;;;;;;;;;;;;;;;5155793;27;19915;-86
2022/07/22 01:40:24;;;;;;;;;;;;;;;;;;5155854;27;19922;-93
2022/07/22 01:42:49;;;;;;;;;;;;;;;;;;5155821;27;19915;-93
2022/07/22 01:45:15;;;;;;;;;;;;;;;;;;5155736;27;19915;-92
2022/07/22 01:47:40;;;;;;;;;;;;;;;;;;5155895;27;19916;-91
2022/07/22 01:50:07;;;;;;;;;;;;;;;;;;5155820;27;20290;-90
2022/07/22 01:52:33;;;;;;;;;;;;;;;;;;5155945;27;19915;-94
2022/07/22 01:54:58;;;;;;;;;;;;;;;;;;5155777;27;19915;-85
2022/07/22 01:57:24;;;;;;;;;;;;;;;;;;5154320;27;20010;-88
2022/07/22 01:59:49;;;;;;;;;;;;;;;;;;5155638;27;19915;-88
2022/07/22 02:02:15;;;;;;;;;;;;;;;;;;5155516;27;19919;-87
2022/07/22 02:04:40;;;;;;;;;;;;;;;;;;5155757;27;20009;-93
2022/07/22 02:07:06;;;;;;;;;;;;;;;;;;5155979;27;19926;-86
2022/07/22 02:09:31;;;;;;;;;;;;;;;;;;5155706;27;19915;-84
2022/07/22 02:11:56;;;;;;;;;;;;;;;;;;5155513;27;19915;-84
2022/07/22 02:14:22;;;;;;;;;;;;;;;;;;5155401;27;19984;-89
2022/07/22 02:16:47;;;;;;;;;;;;;;;;;;5155762;27;19915;-93
2022/07/22 02:19:13;;;;;;;;;;;;;;;;;;5155801;27;19923;-84
2022/07/22 02:21:38;;;;;;;;;;;;;;;;;;5155545;27;19915;-87
2022/07/22 02:24:04;;;;;;;;;;;;;;;;;;5154131;27;19926;-84
2022/07/22 02:26:29;;;;;;;;;;;;;;;;;;5155581;27;19916;-89
2022/07/22 02:28:55;;;;;;;;;;;;;;;;;;5153966;27;19915;-85
2022/07/22 02:31:20;;;;;;;;;;;;;;;;;;5155330;27;20381;-84
2022/07/22 02:33:46;;;;;;;;;;;;;;;;;;5173620;27;20397;-88
2022/07/22 02:36:11;;;;;;;;;;;;;;;;;;5176148;27;19979;-88
2022/07/22 02:38:37;;;;;;;;;;;;;;;;;;5176660;27;19917;-86
2022/07/22 02:41:02;;;;;;;;;;;;;;;;;;5176328;27;20001;-88
2022/07/22 02:43:28;;;;;;;;;;;;;;;;;;5178760;27;19919;-84
2022/07/22 02:45:53;;;;;;;;;;;;;;;;;;5179938;27;20002;-87
2022/07/22 02:48:19;;;;;;;;;;;;;;;;;;5161112;27;19915;-90
2022/07/22 02:50:45;;;;;;;;;;;;;;;;;;5161154;27;20336;-90
2022/07/22 02:53:10;;;;;;;;;;;;;;;;;;5179888;27;20258;-88
2022/07/22 02:55:36;;;;;;;;;;;;;;;;;;5179756;27;19925;-86
2022/07/22 02:58:05;;;;;;;;;;;;;;;;;;5179716;27;20263;-88
2022/07/22 03:00:30;;;;;;;;;;;;;;;;;;5179705;27;20013;-86
2022/07/22 03:02:56;;;;;;;;;;;;;;;;;;5179538;27;19995;-86
2022/07/22 03:05:21;;;;;;;;;;;;;;;;;;5179566;27;19936;-92
2022/07/22 03:07:48;;;;;;;;;;;;;;;;;;5178488;27;19922;-85
2022/07/22 03:10:13;;;;;;;;;;;;;;;;;;5162008;27;19939;-83
2022/07/22 03:12:39;;;;;;;;;;;;;;;;;;5169690;27;19919;-86
2022/07/22 03:15:05;;;;;;;;;;;;;;;;;;5179240;27;19915;-83
2022/07/22 03:17:33;;;;;;;;;;;;;;;;;;5162741;27;19941;-90
2022/07/22 03:19:59;;;;;;;;;;;;;;;;;;5145112;27;19963;-93
2022/07/22 03:22:24;;;;;;;;;;;;;;;;;;5161507;27;19951;-90
2022/07/22 03:24:50;;;;;;;;;;;;;;;;;;5159285;27;20410;-92
2022/07/22 03:27:15;;;;;;;;;;;;;;;;;;5140045;27;19922;-93
2022/07/22 03:29:41;;;;;;;;;;;;;;;;;;5158657;27;19958;-90
2022/07/22 03:32:06;;;;;;;;;;;;;;;;;;5158090;27;19919;-93
2022/07/22 03:34:32;;;;;;;;;;;;;;;;;;5158619;27;19919;-86
2022/07/22 03:36:57;;;;;;;;;;;;;;;;;;5158074;27;19915;-92
2022/07/22 03:39:22;;;;;;;;;;;;;;;;;;5158196;27;20294;-93
2022/07/22 03:41:48;;;;;;;;;;;;;;;;;;5158433;27;20002;-91
2022/07/22 03:44:13;;;;;;;;;;;;;;;;;;5158031;27;19915;-90
2022/07/22 03:46:39;;;;;;;;;;;;;;;;;;5158068;27;20381;-93
2022/07/22 03:49:04;;;;;;;;;;;;;;;;;;5158436;27;19974;-93
2022/07/22 03:51:30;;;;;;;;;;;;;;;;;;5157793;27;19915;-91
2022/07/22 03:53:55;;;;;;;;;;;;;;;;;;5157528;27;19919;-91
2022/07/22 03:56:21;;;;;;;;;;;;;;;;;;5139050;27;20358;-92
2022/07/22 03:58:46;;;;;;;;;;;;;;;;;;5156360;27;19968;-94
2022/07/22 04:01:11;;;;;;;;;;;;;;;;;;5157551;27;19966;-93
2022/07/22 04:03:37;;;;;;;;;;;;;;;;;;5157562;27;20392;-93
2022/07/22 04:06:02;;;;;;;;;;;;;;;;;;5157570;27;19915;-91
2022/07/22 04:08:28;;;;;;;;;;;;;;;;;;5157424;27;19915;-93
2022/07/22 04:10:53;;;;;;;;;;;;;;;;;;5139030;27;19915;-95
2022/07/22 04:13:19;;;;;;;;;;;;;;;;;;5157494;27;19924;-93
2022/07/22 04:15:44;;;;;;;;;;;;;;;;;;5157819;27;19915;-94
2022/07/22 04:18:09;;;;;;;;;;;;;;;;;;5157340;27;19918;-93
2022/07/22 04:20:35;;;;;;;;;;;;;;;;;;5138766;27;19921;-90
2022/07/22 04:23:00;;;;;;;;;;;;;;;;;;5157166;27;20384;-89
2022/07/22 04:25:26;;;;;;;;;;;;;;;;;;5157108;27;19919;-91
2022/07/22 04:27:52;;;;;;;;;;;;;;;;;;5157103;27;19959;-93
2022/07/22 04:30:17;;;;;;;;;;;;;;;;;;5156962;27;19915;-83
2022/07/22 04:32:43;;;;;;;;;;;;;;;;;;5156547;27;19933;-84
2022/07/22 04:35:08;;;;;;;;;;;;;;;;;;5156722;27;20006;-84
2022/07/22 04:37:34;;;;;;;;;;;;;;;;;;5156765;27;19918;-86
2022/07/22 04:39:59;;;;;;;;;;;;;;;;;;5156664;27;20002;-85
2022/07/22 04:42:25;;;;;;;;;;;;;;;;;;5138000;27;19922;-84
2022/07/22 04:44:50;;;;;;;;;;;;;;;;;;5156473;27;19967;-83
2022/07/22 04:47:16;;;;;;;;;;;;;;;;;;5156763;27;19926;-88
2022/07/22 04:49:41;;;;;;;;;;;;;;;;;;5137923;27;20341;-84
2022/07/22 04:52:07;;;;;;;;;;;;;;;;;;5156667;27;19921;-85
2022/07/22 04:54:32;;;;;;;;;;;;;;;;;;5156360;27;19915;-84
2022/07/22 04:56:57;;;;;;;;;;;;;;;;;;5156431;27;19922;-84
2022/07/22 04:59:23;;;;;;;;;;;;;;;;;;5155116;27;19962;-88
2022/07/22 05:01:48;;;;;;;;;;;;;;;;;;5156339;27;19941;-86
2022/07/22 05:04:14;;;;;;;;;;;;;;;;;;5137592;27;19958;-89
2022/07/22 05:06:39;;;;;;;;;;;;;;;;;;5156252;27;19915;-85
2022/07/22 05:09:05;;;;;;;;;;;;;;;;;;5156548;27;20015;-86
2022/07/22 05:11:30;;;;;;;;;;;;;;;;;;5156665;27;20271;-86
2022/07/22 05:13:56;;;;;;;;;;;;;;;;;;5137842;27;20396;-85
2022/07/22 05:16:21;;;;;;;;;;;;;;;;;;5156267;27;19911;-89
2022/07/22 05:18:46;;;;;;;;;;;;;;;;;;5156521;27;19972;-85
2022/07/22 05:21:12;;;;;;;;;;;;;;;;;;5156215;27;19911;-94
2022/07/22 05:23:37;;;;;;;;;;;;;;;;;;5156367;27;20415;-86
2022/07/22 05:26:06;;;;;;;;;;;;;;;;;;5156436;27;19943;-91
2022/07/22 05:28:31;;;;;;;;;;;;;;;;;;5156181;27;19923;-85
2022/07/22 05:30:57;;;;;;;;;;;;;;;;;;5155932;27;19984;-87
2022/07/22 05:33:22;;;;;;;;;;;;;;;;;;5156152;27;19972;-86
2022/07/22 05:35:50;;;;;;;;;;;;;;;;;;5155590;27;20287;-92
2022/07/22 05:38:16;;;;;;;;;;;;;;;;;;5156452;27;20292;-93
2022/07/22 05:40:41;;;;;;;;;;;;;;;;;;5156042;27;19915;-90
2022/07/22 05:43:06;;;;;;;;;;;;;;;;;;5156034;27;19915;-87
2022/07/22 05:45:32;;;;;;;;;;;;;;;;;;5156365;27;19915;-87
2022/07/22 05:47:57;;;;;;;;;;;;;;;;;;5155996;27;19916;-83
2022/07/22 05:50:23;;;;;;;;;;;;;;;;;;5155711;27;19922;-90
2022/07/22 05:52:48;;;;;;;;;;;;;;;;;;5156163;27;19916;-86
2022/07/22 05:55:14;;;;;;;;;;;;;;;;;;5156179;27;19915;-89
2022/07/22 05:57:39;;;;;;;;;;;;;;;;;;5155952;27;19915;-86
2022/07/22 06:00:06;;;;;;;;;;;;;;;;;;5155829;27;19923;-88
2022/07/22 06:02:31;;;;;;;;;;;;;;;;;;5155633;27;19980;-84
2022/07/22 06:04:57;;;;;;;;;;;;;;;;;;5155670;27;19915;-88
2022/07/22 06:07:22;;;;;;;;;;;;;;;;;;5155693;27;19975;-84
2022/07/22 06:09:49;;;;;;;;;;;;;;;;;;5155899;27;19915;-83
2022/07/22 06:12:14;;;;;;;;;;;;;;;;;;5155781;27;19923;-83
2022/07/22 06:14:40;;;;;;;;;;;;;;;;;;5155249;27;19915;-84
2022/07/22 06:17:05;;;;;;;;;;;;;;;;;;5157561;27;19950;-86
2022/07/22 06:19:31;;;;;;;;;;;;;;;;;;5158561;27;20017;-84
2022/07/22 06:33:19;;;;;;;;;;;;;;;;;;5012793;27;2272364;-86
2022/07/22 06:35:45;;;;;;;;;;;;;;;;;;5091739;28;19921;-91
2022/07/22 06:38:10;;;;;;;;;;;;;;;;;;5073695;28;19928;-87
2022/07/22 06:40:36;;;;;;;;;;;;;;;;;;5091459;28;20383;-85
2022/07/22 06:43:02;;;;;;;;;;;;;;;;;;5091600;28;19942;-86
2022/07/22 06:45:28;;;;;;;;;;;;;;;;;;5073662;28;20376;-92
2022/07/22 06:47:53;;;;;;;;;;;;;;;;;;5073179;28;19964;-89
2022/07/22 06:50:19;;;;;;;;;;;;;;;;;;5091205;28;20015;-84
2022/07/22 06:52:44;;;;;;;;;;;;;;;;;;5091403;28;19917;-90
2022/07/22 06:55:10;;;;;;;;;;;;;;;;;;5091198;28;19920;-89
2022/07/22 06:57:36;;;;;;;;;;;;;;;;;;5091275;28;20434;-88
2022/07/22 07:00:04;;;;;;;;;;;;;;;;;;5091177;28;19920;-92
2022/07/22 07:02:29;;;;;;;;;;;;;;;;;;5091138;28;20355;-87
2022/07/22 07:04:55;;;;;;;;;;;;;;;;;;5091043;28;19968;-86
2022/07/22 07:07:20;;;;;;;;;;;;;;;;;;5090935;28;19924;-93
2022/07/22 07:09:46;;;;;;;;;;;;;;;;;;5091053;28;19920;-89
2022/07/22 07:12:11;;;;;;;;;;;;;;;;;;5090823;28;19978;-86
2022/07/22 07:14:37;;;;;;;;;;;;;;;;;;5090828;28;20392;-91
2022/07/22 07:17:02;;;;;;;;;;;;;;;;;;5090836;28;19917;-86
2022/07/22 07:19:28;;;;;;;;;;;;;;;;;;5091151;28;20364;-87
2022/07/22 07:21:53;;;;;;;;;;;;;;;;;;5090528;28;19916;-92
2022/07/22 07:24:19;;;;;;;;;;;;;;;;;;5090726;28;20009;-86
2022/07/22 07:26:44;;;;;;;;;;;;;;;;;;5090487;28;19922;-92
2022/07/22 07:29:10;;;;;;;;;;;;;;;;;;5090340;28;20260;-87
2022/07/22 07:31:36;;;;;;;;;;;;;;;;;;5090710;28;19966;-91
2022/07/22 07:34:01;;;;;;;;;;;;;;;;;;5078391;28;20008;-91
2022/07/22 07:36:26;;;;;;;;;;;;;;;;;;5076790;28;19923;-86
2022/07/22 07:38:52;;;;;;;;;;;;;;;;;;5077269;28;19917;-88
2022/07/22 07:41:18;;;;;;;;;;;;;;;;;;5076684;28;19970;-83
2022/07/22 07:43:43;;;;;;;;;;;;;;;;;;5076762;28;19924;-89
2022/07/22 07:46:09;;;;;;;;;;;;;;;;;;5058854;28;19912;-86
2022/07/22 07:48:34;;;;;;;;;;;;;;;;;;5076687;28;19921;-91
2022/07/22 07:51:00;;;;;;;;;;;;;;;;;;5076689;28;19916;-86
2022/07/22 07:53:26;;;;;;;;;;;;;;;;;;5076528;28;19924;-87
2022/07/22 07:55:52;;;;;;;;;;;;;;;;;;5076583;28;19923;-89
2022/07/22 07:58:17;;;;;;;;;;;;;;;;;;5076663;28;19920;-93
2022/07/22 08:00:43;;;;;;;;;;;;;;;;;;5076371;28;19917;-88
2022/07/22 08:03:08;;;;;;;;;;;;;;;;;;5076365;28;19916;-91
2022/07/22 08:05:34;;;;;;;;;;;;;;;;;;5076322;28;19920;-90
2022/07/22 08:08:00;;;;;;;;;;;;;;;;;;5076248;28;19921;-88
2022/07/22 08:10:26;;;;;;;;;;;;;;;;;;5076285;28;19939;-88
2022/07/22 08:12:53;;;;;;;;;;;;;;;;;;5076024;28;19920;-88
2022/07/22 08:15:18;;;;;;;;;;;;;;;;;;5076218;28;20356;-87
2022/07/22 08:17:44;;;;;;;;;;;;;;;;;;5058081;28;19927;-92
2022/07/22 08:20:09;;;;;;;;;;;;;;;;;;5076075;28;19923;-93
2022/07/22 08:22:35;;;;;;;;;;;;;;;;;;5076081;28;19975;-95
2022/07/22 08:25:01;;;;;;;;;;;;;;;;;;5058079;28;20021;-89
2022/07/22 08:27:26;;;;;;;;;;;;;;;;;;5076097;28;19917;-91
2022/07/22 08:29:52;;;;;;;;;;;;;;;;;;5076742;28;20359;-91
2022/07/22 08:32:17;;;;;;;;;;;;;;;;;;5075959;28;19974;-87
2022/07/22 08:34:43;;;;;;;;;;;;;;;;;;5057881;28;19917;-88
2022/07/22 08:37:09;;;;;;;;;;;;;;;;;;5076348;28;19978;-83
2022/07/22 08:39:34;;;;;;;;;;;;;;;;;;5075880;28;19939;-87
2022/07/22 08:42:00;;;;;;;;;;;;;;;;;;5075672;28;19921;-89
2022/07/22 08:44:32;;;;;;;;;;;;;;;;;;5074952;28;19920;-89
2022/07/22 08:46:58;;;;;;;;;;;;;;;;;;5057826;28;20326;-86
2022/07/22 08:49:24;;;;;;;;;;;;;;;;;;5075384;28;19924;-92
2022/07/22 08:51:49;;;;;;;;;;;;;;;;;;5075704;28;19916;-86
2022/07/22 08:54:15;;;;;;;;;;;;;;;;;;5075898;28;19912;-90
2022/07/22 08:56:42;;;;;;;;;;;;;;;;;;5075437;28;19921;-90
2022/07/22 08:59:08;;;;;;;;;;;;;;;;;;5075296;28;20457;-90
2022/07/22 09:01:33;;;;;;;;;;;;;;;;;;5075037;28;19963;-88
2022/07/22 09:03:59;;;;;;;;;;;;;;;;;;5075142;28;19921;-90
2022/07/22 09:06:25;;;;;;;;;;;;;;;;;;5075045;28;19920;-87
2022/07/22 09:08:55;;;;;;;;;;;;;;;;;;5074954;28;19926;-93
2022/07/22 09:11:22;;;;;;;;;;;;;;;;;;5075011;28;19916;-86
2022/07/22 09:13:48;;;;;;;;;;;;;;;;;;5075046;28;19923;-90
2022/07/22 09:16:13;;;;;;;;;;;;;;;;;;5074890;28;19916;-92
2022/07/22 09:18:51;;;;;;;;;;;;;;;;;;5075019;28;19995;-90
2022/07/22 09:21:17;;;;;;;;;;;;;;;;;;5074702;28;19916;-89
2022/07/22 09:23:43;;;;;;;;;;;;;;;;;;5074801;28;19917;-91
2022/07/22 09:26:08;;;;;;;;;;;;;;;;;;5074968;28;20310;-93
2022/07/22 09:28:34;;;;;;;;;;;;;;;;;;5074733;28;19916;-91
2022/07/22 09:30:59;;;;;;;;;;;;;;;;;;5074561;28;19917;-89
2022/07/22 09:33:25;;;;;;;;;;;;;;;;;;5074665;28;20408;-88
2022/07/22 09:35:51;;;;;;;;;;;;;;;;;;5074488;28;19924;-84
2022/07/22 09:38:17;;;;;;;;;;;;;;;;;;5075882;28;19917;-83
2022/07/22 09:40:47;;;;;;;;;;;;;;;;;;5076883;28;20014;-85
2022/07/22 09:43:14;;;;;;;;;;;;;;;;;;5084964;28;19916;-83
2022/07/22 09:45:50;;;;;;;;;;;;;;;;;;5075345;28;19917;-83
2022/07/22 09:48:17;;;;;;;;;;;;;;;;;;5066392;28;20011;-83
2022/07/22 09:50:44;;;;;;;;;;;;;;;;;;5076974;28;19916;-88
2022/07/22 09:53:09;;;;;;;;;;;;;;;;;;5057179;28;20325;-93
2022/07/22 09:55:38;;;;;;;;;;;;;;;;;;5074950;28;20011;-85
2022/07/22 09:58:03;;;;;;;;;;;;;;;;;;5074367;28;20132;-90
2022/07/22 10:00:29;;;;;;;;;;;;;;;;;;5074326;28;19962;-91
2022/07/22 10:02:57;;;;;;;;;;;;;;;;;;5074173;28;20287;-90
2022/07/22 10:05:23;;;;;;;;;;;;;;;;;;5074177;28;19917;-90
2022/07/22 10:07:49;;;;;;;;;;;;;;;;;;5074159;28;19917;-88
2022/07/22 10:10:17;;;;;;;;;;;;;;;;;;5056084;28;20356;-84
2022/07/22 10:12:43;;;;;;;;;;;;;;;;;;5056107;28;20363;-88
2022/07/22 10:15:09;;;;;;;;;;;;;;;;;;5056120;28;19916;-92
2022/07/22 10:17:36;;;;;;;;;;;;;;;;;;5055988;28;19920;-90
2022/07/22 10:20:02;;;;;;;;;;;;;;;;;;5074093;28;19940;-86
2022/07/22 10:22:40;;;;;;;;;;;;;;;;;;5073959;28;20371;-87
2022/07/22 10:25:06;;;;;;;;;;;;;;;;;;5073947;28;20011;-87
2022/07/22 10:27:43;;;;;;;;;;;;;;;;;;5055975;28;20379;-89
2022/07/22 10:30:10;;;;;;;;;;;;;;;;;;5074005;28;19969;-93
2022/07/22 10:32:35;;;;;;;;;;;;;;;;;;5052312;28;19963;-87
2022/07/22 10:35:01;;;;;;;;;;;;;;;;;;5053915;28;19921;-87
2022/07/22 10:37:40;;;;;;;;;;;;;;;;;;5054413;28;19916;-87
2022/07/22 10:40:22;;;;;;;;;;;;;;;;;;5054103;28;19971;-94
2022/07/22 10:42:59;;;;;;;;;;;;;;;;;;5053770;28;19917;-93
2022/07/22 10:45:30;;;;;;;;;;;;;;;;;;5054145;28;19921;-88
2022/07/22 10:47:59;;;;;;;;;;;;;;;;;;5053957;28;20372;-93
2022/07/22 10:50:45;;;;;;;;;;;;;;;;;;5053828;28;19953;-91
2022/07/22 10:53:12;;;;;;;;;;;;;;;;;;5053760;28;19924;-87
2022/07/22 10:55:38;;;;;;;;;;;;;;;;;;5053850;28;19948;-94
2022/07/22 10:58:27;;;;;;;;;;;;;;;;;;5053616;28;20402;-86
2022/07/22 11:00:52;;;;;;;;;;;;;;;;;;5045233;28;19917;-89
2022/07/22 11:03:25;;;;;;;;;;;;;;;;;;5052318;28;19918;-91
2022/07/22 11:05:50;;;;;;;;;;;;;;;;;;5053712;28;19917;-90
2022/07/22 11:08:16;;;;;;;;;;;;;;;;;;5055169;28;20054;-86
2022/07/22 11:10:48;;;;;;;;;;;;;;;;;;5057393;28;20403;-85
2022/07/22 11:13:29;;;;;;;;;;;;;;;;;;5057207;28;19916;-87
2022/07/22 11:15:55;;;;;;;;;;;;;;;;;;5057569;28;20050;-92
2022/07/22 11:18:21;;;;;;;;;;;;;;;;;;5057584;28;19962;-88
2022/07/22 11:20:47;;;;;;;;;;;;;;;;;;5057181;28;19917;-88
2022/07/22 11:23:13;;;;;;;;;;;;;;;;;;5057269;28;19917;-88
2022/07/22 11:25:38;;;;;;;;;;;;;;;;;;5057337;28;19923;-88
2022/07/22 11:28:04;;;;;;;;;;;;;;;;;;5057029;28;19917;-87
2022/07/22 11:30:29;;;;;;;;;;;;;;;;;;5057054;28;19924;-87
2022/07/22 11:32:55;;;;;;;;;;;;;;;;;;5055384;28;19972;-88
2022/07/22 11:35:20;;;;;;;;;;;;;;;;;;5056851;28;19920;-93
2022/07/22 11:37:54;;;;;;;;;;;;;;;;;;5056902;28;20288;-84
2022/07/22 11:40:23;;;;;;;;;;;;;;;;;;5057290;28;19963;-92
2022/07/22 11:43:00;;;;;;;;;;;;;;;;;;5056682;28;20011;-90
2022/07/22 11:45:25;;;;;;;;;;;;;;;;;;5055428;28;19962;-85
2022/07/22 11:47:51;;;;;;;;;;;;;;;;;;5056989;28;19921;-89
2022/07/22 11:50:16;;;;;;;;;;;;;;;;;;5056782;28;19963;-89
2022/07/22 11:52:51;;;;;;;;;;;;;;;;;;5056866;28;19967;-90
2022/07/22 11:55:16;;;;;;;;;;;;;;;;;;5055252;28;19923;-95
2022/07/22 11:57:48;;;;;;;;;;;;;;;;;;5056608;28;19917;-89
2022/07/22 12:00:18;;;;;;;;;;;;;;;;;;5055621;28;20280;-94
2022/07/22 12:02:43;;;;;;;;;;;;;;;;;;5056909;28;19920;-89
2022/07/22 12:05:08;;;;;;;;;;;;;;;;;;5056625;28;19962;-85
2022/07/22 12:07:34;;;;;;;;;;;;;;;;;;5056446;28;19917;-90
2022/07/22 12:10:01;;;;;;;;;;;;;;;;;;5056199;28;19923;-86
2022/07/22 12:12:47;;;;;;;;;;;;;;;;;;5056364;28;19917;-89
2022/07/22 12:15:12;;;;;;;;;;;;;;;;;;5054530;28;20015;-88
2022/07/22 12:17:37;;;;;;;;;;;;;;;;;;5056197;28;20014;-87
2022/07/22 12:20:10;;;;;;;;;;;;;;;;;;5055946;28;19924;-86
2022/07/22 12:22:44;;;;;;;;;;;;;;;;;;5055937;28;19970;-91
2022/07/22 12:25:09;;;;;;;;;;;;;;;;;;5056605;28;19917;-93
2022/07/22 12:27:34;;;;;;;;;;;;;;;;;;5055826;28;19924;-87
2022/07/22 12:30:10;;;;;;;;;;;;;;;;;;5055860;28;19924;-90
2022/07/22 12:32:36;;;;;;;;;;;;;;;;;;5067628;28;20330;-86
2022/07/22 12:35:03;;;;;;;;;;;;;;;;;;5075494;28;19917;-89
2022/07/22 12:37:29;;;;;;;;;;;;;;;;;;5075819;28;19916;-93
2022/07/22 12:40:02;;;;;;;;;;;;;;;;;;5075629;28;19917;-91
2022/07/22 12:42:30;;;;;;;;;;;;;;;;;;5075615;28;20017;-89
2022/07/22 12:45:05;;;;;;;;;;;;;;;;;;5075499;28;19916;-91
2022/07/22 12:47:45;;;;;;;;;;;;;;;;;;5075377;28;19917;-85
2022/07/22 12:50:29;;;;;;;;;;;;;;;;;;5075426;28;19916;-93
2022/07/22 12:52:55;;;;;;;;;;;;;;;;;;5075390;28;19924;-91
2022/07/22 12:55:21;;;;;;;;;;;;;;;;;;5075559;28;20019;-92
2022/07/22 12:57:46;;;;;;;;;;;;;;;;;;5075679;28;20401;-92
2022/07/22 13:00:16;;;;;;;;;;;;;;;;;;5075308;28;20007;-91
2022/07/22 13:02:42;;;;;;;;;;;;;;;;;;5075035;28;19923;-88
2022/07/22 13:05:07;;;;;;;;;;;;;;;;;;5075044;28;19916;-86
2022/07/22 13:07:33;;;;;;;;;;;;;;;;;;5074910;28;19920;-89
2022/07/22 13:09:58;;;;;;;;;;;;;;;;;;5075102;28;19977;-94
2022/07/22 13:12:24;;;;;;;;;;;;;;;;;;5074927;28;19916;-92
2022/07/22 13:14:49;;;;;;;;;;;;;;;;;;5057078;28;19931;-84
2022/07/22 13:17:15;;;;;;;;;;;;;;;;;;5075063;28;19921;-86
2022/07/22 13:19:40;;;;;;;;;;;;;;;;;;5074910;28;19958;-86
2022/07/22 13:22:06;;;;;;;;;;;;;;;;;;5074676;28;20275;-91
2022/07/22 13:24:31;;;;;;;;;;;;;;;;;;5074928;28;19917;-89
2022/07/22 13:26:57;;;;;;;;;;;;;;;;;;5074659;28;19916;-83
2022/07/22 13:29:22;;;;;;;;;;;;;;;;;;5074614;28;20280;-86
2022/07/22 13:31:49;;;;;;;;;;;;;;;;;;5073994;28;19921;-88
2022/07/22 13:34:14;;;;;;;;;;;;;;;;;;5074833;28;19917;-94
2022/07/22 13:36:40;;;;;;;;;;;;;;;;;;5078877;28;19923;-86
2022/07/22 13:39:05;;;;;;;;;;;;;;;;;;5074870;28;19916;-91
2022/07/22 13:41:31;;;;;;;;;;;;;;;;;;5092018;28;19920;-85
2022/07/22 13:43:56;;;;;;;;;;;;;;;;;;5075796;28;20028;-84
2022/07/22 13:46:22;;;;;;;;;;;;;;;;;;5080751;28;20295;-86
2022/07/22 13:48:47;;;;;;;;;;;;;;;;;;5080934;28;19923;-91
2022/07/22 13:51:14;;;;;;;;;;;;;;;;;;5076067;28;19917;-91
2022/07/22 13:53:39;;;;;;;;;;;;;;;;;;5075116;28;19955;-92
2022/07/22 13:56:05;;;;;;;;;;;;;;;;;;5074768;28;19923;-88
2022/07/22 13:58:31;;;;;;;;;;;;;;;;;;5074472;28;19974;-84
2022/07/22 14:00:56;;;;;;;;;;;;;;;;;;5056414;28;20396;-87
2022/07/22 14:03:22;;;;;;;;;;;;;;;;;;5074430;28;20414;-86
2022/07/22 14:05:47;;;;;;;;;;;;;;;;;;5074839;28;19916;-86
2022/07/22 14:08:13;;;;;;;;;;;;;;;;;;5074245;28;19916;-87
2022/07/22 14:10:38;;;;;;;;;;;;;;;;;;5074202;28;20003;-88
2022/07/22 14:13:06;;;;;;;;;;;;;;;;;;5074253;28;19948;-85
2022/07/22 14:15:32;;;;;;;;;;;;;;;;;;5074214;28;19917;-89
2022/07/22 14:17:57;;;;;;;;;;;;;;;;;;5074186;28;20264;-86
2022/07/22 14:20:22;;;;;;;;;;;;;;;;;;5074076;28;20390;-89
2022/07/22 14:22:48;;;;;;;;;;;;;;;;;;5074101;28;20381;-91
2022/07/22 14:25:13;;;;;;;;;;;;;;;;;;5074183;28;20009;-91
2022/07/22 14:27:39;;;;;;;;;;;;;;;;;;5074188;28;19912;-93
2022/07/22 14:30:04;;;;;;;;;;;;;;;;;;5074032;28;19916;-90
2022/07/22 14:32:30;;;;;;;;;;;;;;;;;;5052541;28;19974;-89
2022/07/22 14:34:55;;;;;;;;;;;;;;;;;;5054038;28;20368;-92
2022/07/22 14:37:21;;;;;;;;;;;;;;;;;;5054018;28;20388;-87
2022/07/22 14:39:47;;;;;;;;;;;;;;;;;;5054038;28;19987;-93
2022/07/22 14:42:12;;;;;;;;;;;;;;;;;;5054477;28;20364;-93
2022/07/22 14:44:38;;;;;;;;;;;;;;;;;;5057895;28;19924;-86
2022/07/22 14:47:06;;;;;;;;;;;;;;;;;;5057961;28;20406;-93
2022/07/22 14:49:32;;;;;;;;;;;;;;;;;;5057932;28;19924;-93
2022/07/22 14:51:57;;;;;;;;;;;;;;;;;;5058210;28;19913;-92
2022/07/22 14:54:23;;;;;;;;;;;;;;;;;;5058247;28;20311;-90
2022/07/22 14:56:48;;;;;;;;;;;;;;;;;;5057899;28;20383;-87
2022/07/22 14:59:14;;;;;;;;;;;;;;;;;;5058075;28;19913;-90
2022/07/22 15:01:40;;;;;;;;;;;;;;;;;;5057697;28;19971;-86
2022/07/22 15:04:06;;;;;;;;;;;;;;;;;;5058029;28;19921;-91
2022/07/22 15:06:31;;;;;;;;;;;;;;;;;;5057785;28;19927;-90
2022/07/22 15:08:57;;;;;;;;;;;;;;;;;;5057613;28;19917;-88
2022/07/22 15:11:22;;;;;;;;;;;;;;;;;;5057995;28;19923;-90
2022/07/22 15:13:48;;;;;;;;;;;;;;;;;;5057789;28;19917;-87
2022/07/22 15:16:13;;;;;;;;;;;;;;;;;;5058001;28;19939;-92
2022/07/22 15:18:39;;;;;;;;;;;;;;;;;;5057208;28;19917;-86
2022/07/22 15:21:04;;;;;;;;;;;;;;;;;;5057062;28;19917;-89
2022/07/22 15:23:30;;;;;;;;;;;;;;;;;;5057346;28;19917;-90
2022/07/22 15:25:56;;;;;;;;;;;;;;;;;;5057068;28;19924;-88
2022/07/22 15:28:22;;;;;;;;;;;;;;;;;;5056207;28;19956;-88
2022/07/22 15:30:47;;;;;;;;;;;;;;;;;;5056712;28;19962;-93
2022/07/22 15:33:13;;;;;;;;;;;;;;;;;;5074122;28;19974;-88
2022/07/22 15:35:39;;;;;;;;;;;;;;;;;;5077178;28;19956;-88
2022/07/22 15:38:04;;;;;;;;;;;;;;;;;;5076930;28;20406;-90
2022/07/22 15:40:30;;;;;;;;;;;;;;;;;;5076756;28;19920;-89
2022/07/22 15:42:55;;;;;;;;;;;;;;;;;;5076908;28;19917;-89
2022/07/22 15:45:22;;;;;;;;;;;;;;;;;;5076800;28;19916;-88
2022/07/22 15:47:48;;;;;;;;;;;;;;;;;;5076816;28;19916;-91
2022/07/22 15:50:14;;;;;;;;;;;;;;;;;;5076834;28;19995;-85
2022/07/22 15:52:40;;;;;;;;;;;;;;;;;;5076620;28;20489;-89
2022/07/22 15:55:06;;;;;;;;;;;;;;;;;;5076433;28;19916;-86
2022/07/22 16:00:16;;;;;;;;;;;;;;;;;;5077051;28;19924;-89
2022/07/22 16:02:41;;;;;;;;;;;;;;;;;;5076698;28;19916;-90
2022/07/22 16:05:07;;;;;;;;;;;;;;;;;;5076415;28;20396;-87
2022/07/22 16:07:32;;;;;;;;;;;;;;;;;;5058448;28;20372;-90
2022/07/22 16:09:58;;;;;;;;;;;;;;;;;;5076919;28;19923;-91
2022/07/22 16:12:23;;;;;;;;;;;;;;;;;;5076538;28;20303;-93
2022/07/22 16:14:48;;;;;;;;;;;;;;;;;;5076741;28;19970;-88
2022/07/22 16:17:14;;;;;;;;;;;;;;;;;;5076696;28;20421;-92
2022/07/22 16:19:39;;;;;;;;;;;;;;;;;;5076557;28;20372;-89
2022/07/22 16:22:05;;;;;;;;;;;;;;;;;;5076265;28;19978;-91
2022/07/22 16:24:30;;;;;;;;;;;;;;;;;;5058117;28;20437;-90
2022/07/22 16:26:56;;;;;;;;;;;;;;;;;;5077439;28;19923;-90
2022/07/22 16:29:21;;;;;;;;;;;;;;;;;;5077253;28;20286;-91
2022/07/22 16:31:47;;;;;;;;;;;;;;;;;;5076328;28;20045;-89
2022/07/22 16:34:12;;;;;;;;;;;;;;;;;;5075814;28;20023;-89
2022/07/22 16:36:38;;;;;;;;;;;;;;;;;;5075969;28;19912;-91
2022/07/22 16:39:03;;;;;;;;;;;;;;;;;;5075757;28;19917;-91
2022/07/22 16:41:29;;;;;;;;;;;;;;;;;;5075546;28;20279;-89
2022/07/22 16:43:54;;;;;;;;;;;;;;;;;;5075673;28;19974;-91
2022/07/22 16:46:19;;;;;;;;;;;;;;;;;;5076046;28;19978;-87
2022/07/22 16:48:45;;;;;;;;;;;;;;;;;;5075674;28;20003;-91
2022/07/22 16:51:10;;;;;;;;;;;;;;;;;;5075346;28;19974;-88
2022/07/22 16:53:36;;;;;;;;;;;;;;;;;;5075376;28;20020;-93